Observation data for Hart on 06/25/2019      Previous  Date  Next       Current Mesonet Observations  Soil Data  Daily Summary Page  Observations in Plain Language
KHRS 250500Z 14013KT 21/16 A2999 RMK A01 T02060164  RH  079%=      5-min Rain = 0
KHRS 250505Z 14013G18KT 21/17 A30 RMK A01 T02060165  RH  079%=      5-min Rain = 0
KHRS 250510Z 14012KT 21/17 A30 RMK A01 T02060166  RH  080%=      5-min Rain = 0
KHRS 250515Z 15012G17KT 21/17 A30 RMK A01 T02070167  RH  080%=      5-min Rain = 0
KHRS 250520Z 15011KT 21/17 A30 RMK A01 T02070168  RH  080%=      5-min Rain = 0
KHRS 250525Z 15011KT 21/17 A30 RMK A01 T02080169  RH  080%=      5-min Rain = 0
KHRS 250530Z 15010KT 21/17 A2999 RMK A01 T02080170  RH  080%=      5-min Rain = 0
KHRS 250535Z 15010KT 21/17 A2999 RMK A01 T02090171  RH  081%=      5-min Rain = 0
KHRS 250540Z 15009G16KT 21/17 A30 RMK A01 T02100172  RH  081%=      5-min Rain = 0
KHRS 250545Z 15011G16KT 21/17 A30 RMK A01 T02120174  RH  081%=      5-min Rain = 0
KHRS 250550Z 15012G17KT 21/18 A30 RMK A01 T02140178  RH  082%=      5-min Rain = 0
KHRS 250555Z 15011G17KT 21/18 A2999 RMK A01 T02130180  RH  083%=      5-min Rain = 0
KHRS 250600Z 14012KT 21/18 A2999 RMK A01 T02130181  RH  084%=      5-min Rain = 0
KHRS 250605Z 14011KT 21/18 A2999 RMK A01 T02130182  RH  085%=      5-min Rain = 0
KHRS 250610Z 14011G16KT 21/18 A2999 RMK A01 T02140183  RH  085%=      5-min Rain = 0
KHRS 250615Z 14010G15KT 21/19 A2999 RMK A01 T02130185  RH  086%=      5-min Rain = 0
KHRS 250620Z 14011KT 21/19 A2999 RMK A01 T02140187  RH  087%=      5-min Rain = 0
KHRS 250625Z 15011G17KT 22/19 A2999 RMK A01 T02170191  RH  088%=      5-min Rain = 0
KHRS 250630Z 15012G17KT 22/19 A2999 RMK A01 T02180194  RH  088%=      5-min Rain = 0
KHRS 250635Z 15011G17KT 22/20 A2999 RMK A01 T02180195  RH  089%=      5-min Rain = 0
KHRS 250640Z 15012G19KT 22/20 A2999 RMK A01 T02180195  RH  090%=      5-min Rain = 0
KHRS 250645Z 15010G15KT 22/20 A2999 RMK A01 T02180196  RH  090%=      5-min Rain = 0
KHRS 250650Z 15010KT 22/20 A2999 RMK A01 T02170196  RH  090%=      5-min Rain = 0
KHRS 250655Z 16012G18KT 22/20 A2999 RMK A01 T02180196  RH  090%=      5-min Rain = 0
KHRS 250700Z 16014G19KT 22/20 A2999 RMK A01 T02190196  RH  089%=      5-min Rain = 0
KHRS 250705Z 16013G18KT 22/20 A2999 RMK A01 T02190196  RH  089%=      5-min Rain = 0
KHRS 250710Z 17010G15KT 22/20 A2999 RMK A01 T02190195  RH  089%=      5-min Rain = 0
KHRS 250715Z 17010G15KT 22/20 A2999 RMK A01 T02170195  RH  089%=      5-min Rain = 0
KHRS 250720Z 17009KT 22/19 A2999 RMK A01 T02150194  RH  090%=      5-min Rain = 0
KHRS 250725Z 17009G16KT 21/19 A2999 RMK A01 T02140193  RH  091%=      5-min Rain = 0
KHRS 250730Z 18009KT 21/19 A2999 RMK A01 T02120193  RH  091%=      5-min Rain = 0
KHRS 250735Z 18009KT 21/19 A2999 RMK A01 T02110192  RH  092%=      5-min Rain = 0
KHRS 250740Z 18009KT 21/19 A2999 RMK A01 T02100191  RH  091%=      5-min Rain = 0
KHRS 250745Z 18008G14KT 21/19 A2999 RMK A01 T02080188  RH  090%=      5-min Rain = 0
KHRS 250750Z 18009G14KT 21/18 A2999 RMK A01 T02060182  RH  088%=      5-min Rain = 0
KHRS 250755Z 18009KT 21/17 A2999 RMK A01 T02050174  RH  084%=      5-min Rain = 0
KHRS 250800Z 18007KT 20/17 A2999 RMK A01 T02030167  RH  082%=      5-min Rain = 0
KHRS 250805Z 18007KT 20/16 A2999 RMK A01 T02020163  RH  080%=      5-min Rain = 0
KHRS 250810Z 18007G13KT 20/16 A2999 RMK A01 T02010161  RH  079%=      5-min Rain = 0
KHRS 250815Z 18007KT 20/16 A2999 RMK A01 T01990160  RH  080%=      5-min Rain = 0
KHRS 250820Z 19007KT 20/16 A2999 RMK A01 T01980160  RH  080%=      5-min Rain = 0
KHRS 250825Z 19006KT 20/16 A2999 RMK A01 T01960160  RH  081%=      5-min Rain = 0
KHRS 250830Z 19006KT 19/16 A2999 RMK A01 T01930159  RH  082%=      5-min Rain = 0
KHRS 250835Z 19007KT 19/16 A2999 RMK A01 T01900159  RH  084%=      5-min Rain = 0
KHRS 250840Z 19007KT 19/16 A2999 RMK A01 T01870159  RH  085%=      5-min Rain = 0
KHRS 250845Z 20006KT 19/16 A2999 RMK A01 T01850158  RH  086%=      5-min Rain = 0
KHRS 250850Z 21006KT 18/16 A2999 RMK A01 T01830158  RH  088%=      5-min Rain = 0
KHRS 250855Z 20005KT 18/16 A2999 RMK A01 T01810157  RH  088%=      5-min Rain = 0
KHRS 250900Z 19004KT 18/16 A2999 RMK A01 T01800158  RH  089%=      5-min Rain = 0
KHRS 250905Z 19004KT 18/16 A2999 RMK A01 T01790158  RH  089%=      5-min Rain = 0
KHRS 250910Z 17003KT 18/16 A2999 RMK A01 T01790157  RH  089%=      5-min Rain = 0
KHRS 250915Z 17003KT 18/16 A2999 RMK A01 T01780156  RH  089%=      5-min Rain = 0
KHRS 250920Z 18003KT 18/16 A2999 RMK A01 T01770156  RH  089%=      5-min Rain = 0
KHRS 250925Z 19003KT 18/16 A2999 RMK A01 T01760155  RH  089%=      5-min Rain = 0
KHRS 250930Z 19004KT 18/15 A2999 RMK A01 T01750154  RH  089%=      5-min Rain = 0
KHRS 250935Z 20005KT 17/15 A2999 RMK A01 T01730152  RH  089%=      5-min Rain = 0
KHRS 250940Z 20005KT 17/15 A2999 RMK A01 T01710151  RH  090%=      5-min Rain = 0
KHRS 250945Z 20005KT 17/15 A2999 RMK A01 T01690149  RH  090%=      5-min Rain = 0
KHRS 250950Z 20005KT 17/15 A2999 RMK A01 T01670148  RH  091%=      5-min Rain = 0
KHRS 250955Z 21005KT 17/15 A2999 RMK A01 T01650148  RH  091%=      5-min Rain = 0
KHRS 251000Z 23004KT 17/15 A2999 RMK A01 T01660149  RH  092%=      5-min Rain = 0
KHRS 251005Z 23003KT 17/15 A2999 RMK A01 T01650149  RH  092%=      5-min Rain = 0
KHRS 251010Z 24002KT 16/15 A30 RMK A01 T01640148  RH  092%=      5-min Rain = 0
KHRS 251015Z 24001KT 16/15 A30 RMK A01 T01640148  RH  092%=      5-min Rain = 0
KHRS 251020Z 22000KT 16/15 A30 RMK A01 T01630148  RH  093%=      5-min Rain = 0
KHRS 251025Z 19001KT 16/15 A3001 RMK A01 T01620147  RH  093%=      5-min Rain = 0
KHRS 251030Z 19001KT 16/15 A3001 RMK A01 T01600146  RH  093%=      5-min Rain = 0
KHRS 251035Z 18001KT 16/15 A3001 RMK A01 T01600146  RH  093%=      5-min Rain = 0
KHRS 251040Z 18001KT 16/15 A3001 RMK A01 T01600146  RH  094%=      5-min Rain = 0
KHRS 251045Z 18001KT 16/15 A3001 RMK A01 T01600146  RH  094%=      5-min Rain = 0
KHRS 251050Z 18002KT 16/15 A3001 RMK A01 T01590146  RH  094%=      5-min Rain = 0
KHRS 251055Z 17003KT 16/15 A3002 RMK A01 T01600147  RH  094%=      5-min Rain = 0
KHRS 251100Z 18003KT 16/15 A3002 RMK A01 T01610147  RH  093%=      5-min Rain = 0
KHRS 251105Z 20004KT 16/14 A3002 RMK A01 T01600143  RH  091%=      5-min Rain = 0
KHRS 251110Z 21004KT 16/14 A3002 RMK A01 T01590140  RH  090%=      5-min Rain = 0
KHRS 251115Z 22006KT 16/14 A3002 RMK A01 T01590138  RH  089%=      5-min Rain = 0
KHRS 251120Z 21007KT 16/14 A3002 RMK A01 T01610136  RH  087%=      5-min Rain = 0
KHRS 251125Z 21007KT 16/14 A3003 RMK A01 T01610136  RH  087%=      5-min Rain = 0
KHRS 251130Z 21008KT 16/14 A3003 RMK A01 T01590135  RH  087%=      5-min Rain = 0
KHRS 251135Z 21007KT 16/14 A3003 RMK A01 T01580135  RH  088%=      5-min Rain = 0
KHRS 251140Z 21007KT 16/13 A3003 RMK A01 T01580134  RH  088%=      5-min Rain = 0
KHRS 251145Z 21006KT 16/13 A3003 RMK A01 T01590134  RH  087%=      5-min Rain = 0
KHRS 251150Z 21006KT 16/13 A3003 RMK A01 T01570133  RH  087%=      5-min Rain = 0
KHRS 251155Z 21006KT 16/13 A3004 RMK A01 T01570133  RH  088%=      5-min Rain = 0
KHRS 251200Z 21006KT 16/13 A3004 RMK A01 T01570133  RH  087%=      5-min Rain = 0
KHRS 251205Z 22006KT 16/13 A3004 RMK A01 T01580133  RH  087%=      5-min Rain = 0
KHRS 251210Z 22006KT 16/13 A3004 RMK A01 T01580133  RH  087%=      5-min Rain = 0
KHRS 251215Z 22006KT 16/13 A3004 RMK A01 T01590134  RH  087%=      5-min Rain = 0
KHRS 251220Z 22006KT 16/14 A3004 RMK A01 T01600135  RH  087%=      5-min Rain = 0
KHRS 251225Z 22006KT 16/14 A3004 RMK A01 T01620135  RH  086%=      5-min Rain = 0
KHRS 251230Z 22006KT 16/14 A3004 RMK A01 T01640136  RH  085%=      5-min Rain = 0
KHRS 251235Z 22006KT 17/14 A3004 RMK A01 T01670137  RH  084%=      5-min Rain = 0
KHRS 251240Z 22006KT 17/14 A3004 RMK A01 T01700137  RH  083%=      5-min Rain = 0
KHRS 251245Z 22005KT 17/14 A3004 RMK A01 T01730138  RH  082%=      5-min Rain = 0
KHRS 251250Z 23006KT 18/14 A3004 RMK A01 T01750138  RH  081%=      5-min Rain = 0
KHRS 251255Z 23005KT 18/14 A3004 RMK A01 T01770139  RH  080%=      5-min Rain = 0
KHRS 251300Z 24006KT 18/14 A3004 RMK A01 T01790140  RH  080%=      5-min Rain = 0
KHRS 251305Z 24007KT 18/14 A3004 RMK A01 T01810140  RH  079%=      5-min Rain = 0
KHRS 251310Z 24006KT 18/14 A3004 RMK A01 T01840142  RH  078%=      5-min Rain = 0
KHRS 251315Z 24007KT 19/14 A3004 RMK A01 T01880143  RH  077%=      5-min Rain = 0
KHRS 251320Z 25007KT 19/14 A3004 RMK A01 T01910142  RH  075%=      5-min Rain = 0
KHRS 251325Z 24008KT 19/14 A3004 RMK A01 T01940141  RH  073%=      5-min Rain = 0
KHRS 251330Z 24008KT 20/14 A3004 RMK A01 T01990141  RH  071%=      5-min Rain = 0
KHRS 251335Z 23010KT 20/14 A3004 RMK A01 T02030141  RH  069%=      5-min Rain = 0
KHRS 251340Z 24010KT 20/14 A3004 RMK A01 T02040140  RH  068%=      5-min Rain = 0
KHRS 251345Z 23010KT 21/14 A3005 RMK A01 T02060141  RH  068%=      5-min Rain = 0
KHRS 251350Z 23010KT 21/14 A3005 RMK A01 T02080141  RH  067%=      5-min Rain = 0
KHRS 251355Z 23010KT 21/14 A3005 RMK A01 T02110142  RH  066%=      5-min Rain = 0
KHRS 251400Z 23010KT 22/14 A3005 RMK A01 T02170142  RH  064%=      5-min Rain = 0
KHRS 251405Z 24010KT 22/14 A3005 RMK A01 T02190143  RH  063%=      5-min Rain = 0
KHRS 251410Z 23010KT 22/15 A3005 RMK A01 T02220145  RH  063%=      5-min Rain = 0
KHRS 251415Z 24011G16KT 23/15 A3004 RMK A01 T02260145  RH  062%=      5-min Rain = 0
KHRS 251420Z 24011G16KT 23/15 A3004 RMK A01 T02310145  RH  060%=      5-min Rain = 0
KHRS 251425Z 23012G17KT 24/15 A3005 RMK A01 T02360146  RH  058%=      5-min Rain = 0
KHRS 251430Z 23014KT 24/15 A3005 RMK A01 T02400146  RH  057%=      5-min Rain = 0
KHRS 251435Z 23015KT 24/15 A3004 RMK A01 T02430147  RH  056%=      5-min Rain = 0
KHRS 251440Z 23013G18KT 25/15 A3004 RMK A01 T02470149  RH  056%=      5-min Rain = 0
KHRS 251445Z 22015KT 25/15 A3004 RMK A01 T02500149  RH  055%=      5-min Rain = 0
KHRS 251450Z 22016KT 25/15 A3004 RMK A01 T02490148  RH  055%=      5-min Rain = 0
KHRS 251455Z 22015KT 25/15 A3004 RMK A01 T02490147  RH  054%=      5-min Rain = 0
KHRS 251500Z 22014G19KT 25/15 A3004 RMK A01 T02520148  RH  054%=      5-min Rain = 0
KHRS 251505Z 22014KT 25/15 A3004 RMK A01 T02530148  RH  053%=      5-min Rain = 0
KHRS 251510Z 23015KT 25/15 A3004 RMK A01 T02530148  RH  053%=      5-min Rain = 0
KHRS 251515Z 22012G17KT 26/15 A3004 RMK A01 T02570150  RH  053%=      5-min Rain = 0
KHRS 251520Z 22014KT 26/15 A3004 RMK A01 T02590149  RH  052%=      5-min Rain = 0
KHRS 251525Z 22015KT 26/15 A3004 RMK A01 T02600149  RH  051%=      5-min Rain = 0
KHRS 251530Z 22014G19KT 26/15 A3004 RMK A01 T02620150  RH  051%=      5-min Rain = 0
KHRS 251535Z 21015KT 27/15 A3004 RMK A01 T02660149  RH  050%=      5-min Rain = 0
KHRS 251540Z 22014KT 27/15 A3004 RMK A01 T02680148  RH  049%=      5-min Rain = 0
KHRS 251545Z 21013KT 27/15 A3004 RMK A01 T02720150  RH  048%=      5-min Rain = 0
KHRS 251550Z 21014G19KT 28/15 A3004 RMK A01 T02760148  RH  047%=      5-min Rain = 0
KHRS 251555Z 21013G18KT 28/15 A3004 RMK A01 T02780148  RH  046%=      5-min Rain = 0
KHRS 251600Z 21014G19KT 28/15 A3004 RMK A01 T02780147  RH  046%=      5-min Rain = 0
KHRS 251605Z 21014KT 28/15 A3004 RMK A01 T02800147  RH  045%=      5-min Rain = 0
KHRS 251610Z 22013G18KT 28/15 A3004 RMK A01 T02790148  RH  046%=      5-min Rain = 0
KHRS 251615Z 22013KT 28/15 A3004 RMK A01 T02820146  RH  045%=      5-min Rain = 0
KHRS 251620Z 20014KT 29/15 A3004 RMK A01 T02850146  RH  044%=      5-min Rain = 0
KHRS 251625Z 22013KT 29/15 A3004 RMK A01 T02880145  RH  042%=      5-min Rain = 0
KHRS 251630Z 21013KT 29/15 A3004 RMK A01 T02870145  RH  043%=      5-min Rain = 0
KHRS 251635Z 22012G18KT 29/14 A3004 RMK A01 T02890143  RH  042%=      5-min Rain = 0
KHRS 251640Z 22012KT 29/14 A3004 RMK A01 T02910144  RH  041%=      5-min Rain = 0
KHRS 251645Z 22012G17KT 29/15 A3004 RMK A01 T02940146  RH  041%=      5-min Rain = 0
KHRS 251650Z 22011G16KT 30/14 A3004 RMK A01 T02960144  RH  040%=      5-min Rain = 0
KHRS 251655Z 22012G17KT 30/14 A3004 RMK A01 T02990140  RH  039%=      5-min Rain = 0
KHRS 251700Z 23011G16KT 30/14 A3004 RMK A01 T03000142  RH  039%=      5-min Rain = 0
KHRS 251705Z 22012KT 30/14 A3004 RMK A01 T03040140  RH  038%=      5-min Rain = 0
KHRS 251710Z 22012G17KT 30/14 A3004 RMK A01 T03030139  RH  038%=      5-min Rain = 0
KHRS 251715Z 21013KT 31/13 A3004 RMK A01 T03100132  RH  034%=      5-min Rain = 0
KHRS 251720Z 22013KT 31/13 A3004 RMK A01 T03100132  RH  034%=      5-min Rain = 0
KHRS 251725Z 21012KT 31/13 A3004 RMK A01 T03110130  RH  034%=      5-min Rain = 0
KHRS 251730Z 20012G18KT 32/13 A3003 RMK A01 T03150130  RH  033%=      5-min Rain = 0
KHRS 251735Z 21011G17KT 32/13 A3003 RMK A01 T03180133  RH  033%=      5-min Rain = 0
KHRS 251740Z 20014KT 32/12 A3003 RMK A01 T03200123  RH  031%=      5-min Rain = 0
KHRS 251745Z 22013KT 32/12 A3003 RMK A01 T03230118  RH  029%=      5-min Rain = 0
KHRS 251750Z 22012KT 33/12 A3003 RMK A01 T03260116  RH  028%=      5-min Rain = 0
KHRS 251755Z 23011KT 32/11 A3003 RMK A01 T03240112  RH  028%=      5-min Rain = 0
KHRS 251800Z 21012G17KT 33/11 A3003 RMK A01 T03290108  RH  026%=      5-min Rain = 0
KHRS 251805Z 20012G17KT 33/11 A3003 RMK A01 T03330110  RH  026%=      5-min Rain = 0
KHRS 251810Z 19011G18KT 33/11 A3003 RMK A01 T03330109  RH  026%=      5-min Rain = 0
KHRS 251815Z 19012G17KT 33/10 A3003 RMK A01 T03330102  RH  025%=      5-min Rain = 0
KHRS 251820Z 20012KT 34/10 A3002 RMK A01 T03350098  RH  024%=      5-min Rain = 0
KHRS 251825Z 21012G18KT 34/10 A3002 RMK A01 T03370095  RH  023%=      5-min Rain = 0
KHRS 251830Z 19010G15KT 34/09 A3002 RMK A01 T03380091  RH  022%=      5-min Rain = 0
KHRS 251835Z 17010G16KT 34/08 A3002 RMK A01 T03410084  RH  021%=      5-min Rain = 0
KHRS 251840Z 17011G17KT 34/08 A3002 RMK A01 T03390080  RH  021%=      5-min Rain = 0
KHRS 251845Z 16012G18KT 34/08 A3002 RMK A01 T03410077  RH  020%=      5-min Rain = 0
KHRS 251850Z 17008G17KT 34/08 A3002 RMK A01 T03430079  RH  020%=      5-min Rain = 0
KHRS 251855Z 18010G16KT 34/07 A3002 RMK A01 T03430068  RH  019%=      5-min Rain = 0
KHRS 251900Z 19012G17KT 35/06 A3002 RMK A01 T03450063  RH  018%=      5-min Rain = 0
KHRS 251905Z 18009G14KT 34/07 A3001 RMK A01 T03440068  RH  018%=      5-min Rain = 0
KHRS 251910Z 18011G18KT 35/07 A3001 RMK A01 T03470067  RH  018%=      5-min Rain = 0
KHRS 251915Z 21011G16KT 35/06 A3001 RMK A01 T03540057  RH  016%=      5-min Rain = 0
KHRS 251920Z 19011G19KT 35/06 A3001 RMK A01 T03540060  RH  016%=      5-min Rain = 0
KHRS 251925Z 19011G19KT 35/05 A3001 RMK A01 T03530052  RH  016%=      5-min Rain = 0
KHRS 251930Z 19012KT 35/04 A3001 RMK A01 T03530037  RH  014%=      5-min Rain = 0
KHRS 251935Z 19007G12KT 35/03 A3001 RMK A01 T03500031  RH  014%=      5-min Rain = 0
KHRS 251940Z 19012G17KT 35/05 A3001 RMK A01 T03500049  RH  016%=      5-min Rain = 0
KHRS 251945Z 18010G17KT 35/05 A30 RMK A01 T03540047  RH  015%=      5-min Rain = 0
KHRS 251950Z 17011G18KT 35/04 A30 RMK A01 T03540035  RH  014%=      5-min Rain = 0
KHRS 251955Z 18012KT 35/03 A30 RMK A01 T03530031  RH  014%=      5-min Rain = 0
KHRS 252000Z 17008G14KT 35/03 A30 RMK A01 T03520034  RH  014%=      5-min Rain = 0
KHRS 252005Z 16008G13KT 35/05 A30 RMK A01 T03520045  RH  015%=      5-min Rain = 0
KHRS 252010Z 20010G21KT 35/04 A2999 RMK A01 T03520037  RH  014%=      5-min Rain = 0
KHRS 252015Z 18010G18KT 36/05 A2999 RMK A01 T03560047  RH  015%=      5-min Rain = 0
KHRS 252020Z 15011G16KT 35/04 A2999 RMK A01 T03480041  RH  015%=      5-min Rain = 0
KHRS 252025Z 16011G18KT 35/04 A2999 RMK A01 T03480044  RH  015%=      5-min Rain = 0
KHRS 252030Z 17008G13KT 36/04 A2999 RMK A01 T03560038  RH  014%=      5-min Rain = 0
KHRS 252035Z 17009G17KT 36/03 A2999 RMK A01 T03570034  RH  014%=      5-min Rain = 0
KHRS 252040Z 17011KT 36/04 A2998 RMK A01 T03590038  RH  014%=      5-min Rain = 0
KHRS 252045Z 16012G24KT 36/05 A2998 RMK A01 T03580047  RH  015%=      5-min Rain = 0
KHRS 252050Z 17011G16KT 35/04 A2998 RMK A01 T03540040  RH  014%=      5-min Rain = 0
KHRS 252055Z 20011KT 36/04 A2998 RMK A01 T03550038  RH  014%=      5-min Rain = 0
KHRS 252100Z 17009G16KT 36/04 A2997 RMK A01 T03570038  RH  014%=      5-min Rain = 0
KHRS 252105Z 15010G17KT 36/03 A2997 RMK A01 T03550034  RH  014%=      5-min Rain = 0
KHRS 252110Z 15010G17KT 35/03 A2997 RMK A01 T03480027  RH  014%=      5-min Rain = 0
KHRS 252115Z 16012G20KT 34/03 A2997 RMK A01 T03390030  RH  015%=      5-min Rain = 0
KHRS 252120Z 19011G18KT 35/02 A2996 RMK A01 T03490018  RH  013%=      5-min Rain = 0
KHRS 252125Z 17010KT 36/03 A2996 RMK A01 T03580031  RH  013%=      5-min Rain = 0
KHRS 252130Z 17012G18KT 36/05 A2996 RMK A01 T03590047  RH  015%=      5-min Rain = 0
KHRS 252135Z 16014G21KT 36/05 A2996 RMK A01 T03560051  RH  015%=      5-min Rain = 0
KHRS 252140Z 15014G21KT 35/05 A2996 RMK A01 T03540048  RH  015%=      5-min Rain = 0
KHRS 252145Z 17013G20KT 35/04 A2996 RMK A01 T03510042  RH  015%=      5-min Rain = 0
KHRS 252150Z 18013G19KT 35/04 A2995 RMK A01 T03530035  RH  014%=      5-min Rain = 0
KHRS 252155Z 18011G16KT 35/04 A2995 RMK A01 T03520035  RH  014%=      5-min Rain = 0
KHRS 252200Z 18011G17KT 36/04 A2995 RMK A01 T03550038  RH  014%=      5-min Rain = 0
KHRS 252205Z 19016KT 36/03 A2995 RMK A01 T03570032  RH  013%=      5-min Rain = 0
KHRS 252210Z 18012G18KT 35/03 A2995 RMK A01 T03540027  RH  013%=      5-min Rain = 0
KHRS 252215Z 14016G23KT 34/10 A2995 RMK A01 T03430095  RH  022%=      5-min Rain = 0
KHRS 252220Z 13014KT 33/10 A2995 RMK A01 T03320101  RH  025%=      5-min Rain = 0
KHRS 252225Z 16013G19KT 34/08 A2995 RMK A01 T03370083  RH  021%=      5-min Rain = 0
KHRS 252230Z 17013G21KT 34/07 A2995 RMK A01 T03370073  RH  020%=      5-min Rain = 0
KHRS 252235Z 17013G20KT 34/08 A2995 RMK A01 T03380077  RH  020%=      5-min Rain = 0
KHRS 252240Z 18013G20KT 34/08 A2995 RMK A01 T03430081  RH  020%=      5-min Rain = 0
KHRS 252245Z 17014G25KT 34/08 A2995 RMK A01 T03360082  RH  021%=      5-min Rain = 0
KHRS 252250Z 17012G17KT 33/09 A2995 RMK A01 T03340089  RH  023%=      5-min Rain = 0
KHRS 252255Z 18014G21KT 34/09 A2995 RMK A01 T03370092  RH  023%=      5-min Rain = 0
KHRS 252300Z 17012G20KT 34/10 A2994 RMK A01 T03430097  RH  023%=      5-min Rain = 0
KHRS 252305Z 17014G22KT 34/10 A2994 RMK A01 T03410095  RH  023%=      5-min Rain = 0
KHRS 252310Z 18013G24KT 34/10 A2994 RMK A01 T03400099  RH  023%=      5-min Rain = 0
KHRS 252315Z 16015G23KT 34/10 A2994 RMK A01 T03380103  RH  024%=      5-min Rain = 0
KHRS 252320Z 17014G22KT 33/12 A2993 RMK A01 T03330120  RH  028%=      5-min Rain = 0
KHRS 252325Z 17015G25KT 33/12 A2993 RMK A01 T03340115  RH  027%=      5-min Rain = 0
KHRS 252330Z 17017G24KT 33/12 A2992 RMK A01 T03330120  RH  028%=      5-min Rain = 0
KHRS 252335Z 16015G23KT 33/13 A2992 RMK A01 T03300128  RH  030%=      5-min Rain = 0
KHRS 252340Z 17015G23KT 33/13 A2992 RMK A01 T03290126  RH  030%=      5-min Rain = 0
KHRS 252345Z 17014G21KT 33/12 A2992 RMK A01 T03300120  RH  028%=      5-min Rain = 0
KHRS 252350Z 17015G23KT 33/13 A2992 RMK A01 T03290125  RH  029%=      5-min Rain = 0
KHRS 252355Z 17015G23KT 33/12 A2993 RMK A01 T03280123  RH  029%=      5-min Rain = 0
KHRS 260000Z 15016G26KT 33/13 A2993 RMK A01 T03250125  RH  030%=      5-min Rain = 0
KHRS 260005Z 15016G25KT 33/13 A2993 RMK A01 T03250125  RH  030%=      5-min Rain = 0
KHRS 260010Z 15014G22KT 33/13 A2994 RMK A01 T03250125  RH  030%=      5-min Rain = 0
KHRS 260015Z 15016G23KT 32/12 A2994 RMK A01 T03240120  RH  029%=      5-min Rain = 0
KHRS 260020Z 15015G24KT 32/12 A2994 RMK A01 T03210120  RH  030%=      5-min Rain = 0
KHRS 260025Z 15016G23KT 32/12 A2994 RMK A01 T03180116  RH  030%=      5-min Rain = 0
KHRS 260030Z 15015G23KT 32/12 A2994 RMK A01 T03190119  RH  030%=      5-min Rain = 0
KHRS 260035Z 14021G28KT 32/12 A2995 RMK A01 T03170117  RH  030%=      5-min Rain = 0
KHRS 260040Z 14020G26KT 32/11 A2995 RMK A01 T03160113  RH  029%=      5-min Rain = 0
KHRS 260045Z 14017G24KT 32/12 A2996 RMK A01 T03160117  RH  030%=      5-min Rain = 0
KHRS 260050Z 14019G25KT 31/12 A2997 RMK A01 T03140118  RH  031%=      5-min Rain = 0
KHRS 260055Z 13019G25KT 31/12 A2998 RMK A01 T03120119  RH  031%=      5-min Rain = 0
KHRS 260100Z 08021G27KT 28/14 A3001 RMK A01 T02770137  RH  043%=      5-min Rain = 0
KHRS 260105Z 07024G37KT 25/14 A30 RMK A01 T02450136  RH  051%=      5-min Rain = 0
KHRS 260110Z 06029G36KT 24/12 A30 RMK A01 T02370123  RH  050%=      5-min Rain = 0
KHRS 260115Z 06029G37KT 23/12 A3001 RMK A01 T02340115  RH  048%=      5-min Rain = 0
KHRS 260120Z 06026G33KT 23/12 A3001 RMK A01 T02280118  RH  051%=      5-min Rain = 0
KHRS 260125Z 06024G33KT 23/12 A3001 RMK A01 T02280121  RH  052%=      5-min Rain = 0
KHRS 260130Z 06028G37KT 23/13 A3002 RMK A01 T02270125  RH  054%=      5-min Rain = 0
KHRS 260135Z 06028G37KT 22/13 A3002 RMK A01 T02240128  RH  056%=      5-min Rain = 0
KHRS 260140Z 07027G34KT 22/14 A3003 RMK A01 T02230136  RH  059%=      5-min Rain = 0
KHRS 260145Z 07027G33KT 23/14 A3003 RMK A01 T02270137  RH  058%=      5-min Rain = 0
KHRS 260150Z 07026G31KT 23/13 A3003 RMK A01 T02270132  RH  056%=      5-min Rain = 0
KHRS 260155Z 07026G32KT 23/13 A3004 RMK A01 T02280129  RH  055%=      5-min Rain = 0
KHRS 260200Z 08026G34KT 23/13 A3004 RMK A01 T02250134  RH  058%=      5-min Rain = 0
KHRS 260205Z 08025G31KT 22/14 A3004 RMK A01 T02160138  RH  062%=      5-min Rain = 0
KHRS 260210Z 08026G32KT 21/14 A3004 RMK A01 T02100140  RH  065%=      5-min Rain = 0
KHRS 260215Z 08023KT 21/14 A3004 RMK A01 T02100141  RH  066%=      5-min Rain = 0
KHRS 260220Z 08021G26KT 21/14 A3005 RMK A01 T02130141  RH  065%=      5-min Rain = 0
KHRS 260225Z 08026G34KT 22/14 A3005 RMK A01 T02180140  RH  063%=      5-min Rain = 0
KHRS 260230Z 08030G37KT 22/14 A3005 RMK A01 T02180138  RH  062%=      5-min Rain = 0
KHRS 260235Z 09029G36KT 21/14 A3005 RMK A01 T02120143  RH  066%=      5-min Rain = 0
KHRS 260240Z 09028G33KT 21/15 A3005 RMK A01 T02110146  RH  068%=      5-min Rain = 0
KHRS 260245Z 09025G31KT 21/15 A3005 RMK A01 T02090148  RH  070%=      5-min Rain = 0
KHRS 260250Z 09026G33KT 21/15 A3006 RMK A01 T02080148  RH  070%=      5-min Rain = 0
KHRS 260255Z 10024G30KT 21/15 A3006 RMK A01 T02070146  RH  070%=      5-min Rain = 0
KHRS 260300Z 10024KT 21/15 A3006 RMK A01 T02070146  RH  069%=      5-min Rain = 0
KHRS 260305Z 10024G29KT 21/14 A3006 RMK A01 T02070144  RH  069%=      5-min Rain = 0
KHRS 260310Z 10025G30KT 21/14 A3006 RMK A01 T02080141  RH  067%=      5-min Rain = 0
KHRS 260315Z 10024G29KT 21/14 A3006 RMK A01 T02110138  RH  065%=      5-min Rain = 0
KHRS 260320Z 10024G29KT 21/14 A3006 RMK A01 T02120135  RH  063%=      5-min Rain = 0
KHRS 260325Z 11024KT 21/13 A3007 RMK A01 T02140134  RH  062%=      5-min Rain = 0
KHRS 260330Z 10023G28KT 22/14 A3007 RMK A01 T02150136  RH  062%=      5-min Rain = 0
KHRS 260335Z 10022G28KT 22/13 A3007 RMK A01 T02150134  RH  061%=      5-min Rain = 0
KHRS 260340Z 10022G27KT 21/14 A3008 RMK A01 T02140135  RH  062%=      5-min Rain = 0
KHRS 260345Z 10020G26KT 21/14 A3008 RMK A01 T02120137  RH  063%=      5-min Rain = 0
KHRS 260350Z 10020G25KT 21/14 A3009 RMK A01 T02110139  RH  065%=      5-min Rain = 0
KHRS 260355Z 10018G24KT 21/14 A3009 RMK A01 T02110139  RH  065%=      5-min Rain = 0
KHRS 260400Z 10017KT 21/14 A3009 RMK A01 T02120141  RH  065%=      5-min Rain = 0
KHRS 260405Z 10018KT 21/14 A3009 RMK A01 T02140143  RH  065%=      5-min Rain = 0
KHRS 260410Z 10015G20KT 21/15 A301 RMK A01 T02140145  RH  066%=      5-min Rain = 0
KHRS 260415Z 11014KT 21/15 A301 RMK A01 T02140146  RH  067%=      5-min Rain = 0
KHRS 260420Z 10012KT 21/15 A3011 RMK A01 T02130147  RH  067%=      5-min Rain = 0
KHRS 260425Z 10013KT 21/15 A3011 RMK A01 T02130148  RH  068%=      5-min Rain = 0
KHRS 260430Z 10013KT 21/15 A3011 RMK A01 T02130149  RH  068%=      5-min Rain = 0
KHRS 260435Z 10012KT 21/15 A3012 RMK A01 T02110149  RH  069%=      5-min Rain = 0
KHRS 260440Z 10012KT 21/15 A3012 RMK A01 T02110149  RH  069%=      5-min Rain = 0
KHRS 260445Z 10011KT 21/15 A3012 RMK A01 T02110149  RH  069%=      5-min Rain = 0
KHRS 260450Z 10011KT 21/15 A3012 RMK A01 T02120149  RH  069%=      5-min Rain = 0
KHRS 260455Z 11014KT 22/15 A3013 RMK A01 T02150148  RH  067%=      5-min Rain = 0

Page generated in 0.0091 seconds.